Mitteilungen von MTHOOD - Kartenansicht · Info · Telemetrie · Wetter · Rohdaten · Status · Baken · Mitteilungen · Nachrichten · durchsuchen · bewegend · Mein Benutzerkonto
Rufzeichen:
Zeige:

Lade message Pakete...

APRS Mitteilungen werden für 14 Tage gespeichert. Es ist möglich bei der Suche einen Platzhalter (*?) nach dem Präfix zu verwenden.

2019-06-15 15:18:04 EDT: MTHOOD>N7QME: temps 59.5 95.9 57.8
2019-06-15 15:37:24 EDT: MTHOOD>N7QME: hum 51 15 64
2019-06-15 16:17:04 EDT: MTHOOD>N7QME: temps 59.6 96.0 59.7
2019-06-15 16:34:57 EDT: MTHOOD>N7QME: hum 51 10 61
2019-06-15 17:08:39 EDT: MTHOOD>N7QME: temps 59.7 96.3 61.4
2019-06-15 17:25:54 EDT: MTHOOD>N7QME: hum 51 11 59
2019-06-15 17:59:04 EDT: MTHOOD>N7QME: temps 59.8 96.5 62.8
2019-06-15 18:14:59 EDT: MTHOOD>N7QME: hum 51 12 55
2019-06-15 18:52:34 EDT: MTHOOD>N7QME: temps 60.0 96.6 64.6
2019-06-15 19:09:29 EDT: MTHOOD>N7QME: hum 51 10 56
2019-06-15 19:46:14 EDT: MTHOOD>N7QME: temps 60.1 96.6 65.0
2019-06-15 20:04:44 EDT: MTHOOD>N7QME: hum 52 15 58
2019-06-15 20:42:34 EDT: MTHOOD>N7QME: temps 60.3 96.4 64.5
2019-06-15 21:01:59 EDT: MTHOOD>N7QME: hum 52 12 60
2019-06-15 21:38:59 EDT: MTHOOD>N7QME: temps 60.5 96.3 63.6
2019-06-15 21:55:14 EDT: MTHOOD>N7QME: hum 52 13 59
2019-06-15 22:31:09 EDT: MTHOOD>N7QME: temps 60.7 96.1 62.7
2019-06-15 22:50:29 EDT: MTHOOD>N7QME: hum 52 14 61
2019-06-15 23:26:34 EDT: MTHOOD>N7QME: temps 60.8 96.9 61.9
2019-06-15 23:44:49 EDT: MTHOOD>N7QME: hum 52 15 64
2019-06-16 00:21:49 EDT: MTHOOD>N7QME: temps 60.9 96.6 61.3
2019-06-16 00:41:44 EDT: MTHOOD>N7QME: hum 52 12 66
2019-06-16 01:20:19 EDT: MTHOOD>N7QME: temps 60.9 96.4 60.4
2019-06-16 01:38:44 EDT: MTHOOD>N7QME: hum 52 11 67
2019-06-16 02:13:54 EDT: MTHOOD>N7QME: temps 60.9 96.3 59.7
2019-06-16 02:32:29 EDT: MTHOOD>N7QME: hum 53 12 68
2019-06-16 03:07:09 EDT: MTHOOD>N7QME: temps 60.9 96.2 59.0
2019-06-16 03:24:44 EDT: MTHOOD>N7QME: hum 53 10 70
2019-06-16 04:01:29 EDT: MTHOOD>N7QME: temps 60.9 96.1 58.5
2019-06-16 04:20:24 EDT: MTHOOD>N7QME: hum 53 10 72
2019-06-16 04:58:54 EDT: MTHOOD>N7QME: temps 60.8 95.9 57.9
2019-06-16 05:17:29 EDT: MTHOOD>N7QME: hum 53 11 71
2019-06-16 05:54:14 EDT: MTHOOD>N7QME: temps 60.8 95.7 57.2
2019-06-16 06:11:44 EDT: MTHOOD>N7QME: hum 53 13 71
2019-06-16 06:49:29 EDT: MTHOOD>N7QME: temps 60.7 95.5 56.5
2019-06-16 07:06:49 EDT: MTHOOD>N7QME: hum 53 14 71
2019-06-16 07:41:39 EDT: MTHOOD>N7QME: temps 60.5 95.3 55.9
2019-06-16 07:57:39 EDT: MTHOOD>N7QME: hum 53 15 72
2019-06-16 08:34:49 EDT: MTHOOD>N7QME: temps 60.4 95.2 55.5
2019-06-16 08:54:49 EDT: MTHOOD>N7QME: hum 53 12 73
2019-06-16 09:31:09 EDT: MTHOOD>N7QME: temps 60.3 95.1 55.0
2019-06-16 09:47:14 EDT: MTHOOD>N7QME: hum 53 11 74
2019-06-16 10:26:24 EDT: MTHOOD>N7QME: temps 60.1 95.1 54.8
2019-06-16 10:44:29 EDT: MTHOOD>N7QME: hum 53 12 74
2019-06-16 11:19:49 EDT: MTHOOD>N7QME: temps 60.0 95.5 55.0
2019-06-16 11:35:44 EDT: MTHOOD>N7QME: hum 53 10 75
2019-06-16 12:09:24 EDT: MTHOOD>N7QME: temps 59.9 96.3 55.3
2019-06-16 12:27:54 EDT: MTHOOD>N7QME: hum 53 10 73
2019-06-16 13:04:39 EDT: MTHOOD>N7QME: temps 59.8 96.4 56.2
2019-06-16 13:21:11 EDT: MTHOOD>N7QME: hum 53 11 70
< vorhergehender
FAQ · Blog · Diskussionsgruppe · Link zu aprs.fi · AIS-Sites · Status des Servers · Datenbank Statistiken · Werbe auf aprs.fi · Technische Details · API · Änderungen · geplante Änderungen · Dank an · Nutzungsbedingungen · iPhone/iPad APRS